createdAt,value
2022-11-03T00:01:10.717Z,100942.16
2022-11-03T00:03:37.186Z,100936.78
2022-11-03T00:06:07.098Z,100928.88
2022-11-03T00:08:34.940Z,100928.88
2022-11-03T00:11:14.763Z,100927.19
2022-11-03T00:13:43.466Z,100920.97
2022-11-03T00:16:11.889Z,100921.16
2022-11-03T00:18:39.374Z,100911.38
2022-11-03T00:21:11.337Z,100912.41
2022-11-03T00:23:41.001Z,100908.88
2022-11-03T00:26:12.995Z,100904.47
2022-11-03T00:28:41.018Z,100902.94
2022-11-03T00:31:13.930Z,100901.28
2022-11-03T00:33:41.392Z,100897.91
2022-11-03T00:36:10.209Z,100904.28
2022-11-03T00:38:37.637Z,100904.44
2022-11-03T00:41:05.802Z,100910.84
2022-11-03T00:43:34.329Z,100908.16
2022-11-03T00:46:01.504Z,100910.16
2022-11-03T00:48:31.130Z,100903.94
2022-11-03T00:51:11.165Z,100902.09
2022-11-03T00:53:38.480Z,100901.38
2022-11-03T00:56:05.888Z,100901.53
2022-11-03T00:58:32.945Z,100901.69
2022-11-03T01:01:08.769Z,100892.94
2022-11-03T01:03:37.228Z,100899.47
2022-11-03T01:06:26.326Z,100885.53
2022-11-03T01:08:52.676Z,100882.31
2022-11-03T01:11:41.081Z,100881.78
2022-11-03T01:14:09.381Z,100877.75
2022-11-03T01:16:35.788Z,100887.81
2022-11-03T01:19:02.310Z,100887.25
2022-11-03T01:21:28.706Z,100877.84
2022-11-03T01:23:55.447Z,100881.84
2022-11-03T01:26:22.022Z,100881.19
2022-11-03T01:28:48.961Z,100862.53
2022-11-03T01:31:18.673Z,100875.28
2022-11-03T01:33:45.892Z,100877.25
2022-11-03T01:36:13.707Z,100868.53
2022-11-03T01:38:40.377Z,100866.84
2022-11-03T01:41:09.237Z,100848.22
2022-11-03T01:43:38.659Z,100862.31
2022-11-03T01:46:10.854Z,100848.03
2022-11-03T01:48:42.628Z,100841.84
2022-11-03T01:51:13.337Z,100846.38
2022-11-03T01:53:42.971Z,100829.25
2022-11-03T01:56:12.269Z,100822.19
2022-11-03T01:58:42.374Z,100817.66
2022-11-03T02:01:08.893Z,100823.03
2022-11-03T02:03:40.721Z,100817.50
2022-11-03T02:06:07.757Z,100813.13
2022-11-03T02:08:47.401Z,100814.97
2022-11-03T02:11:33.187Z,100803.38
2022-11-03T02:13:59.617Z,100788.28
2022-11-03T02:16:27.980Z,100789.28
2022-11-03T02:18:55.993Z,100784.06
2022-11-03T02:21:37.745Z,100781.53
2022-11-03T02:24:13.522Z,100774.66
2022-11-03T02:26:41.826Z,100797.97
2022-11-03T02:29:08.222Z,100788.41
2022-11-03T02:31:41.757Z,100776.81
2022-11-03T02:34:11.585Z,100773.44
2022-11-03T02:37:02.102Z,100770.06
2022-11-03T02:39:44.446Z,100765.72
2022-11-03T02:42:12.557Z,100760.50
2022-11-03T02:44:40.187Z,100766.03
2022-11-03T02:47:10.565Z,100755.44
2022-11-03T02:49:45.519Z,100755.59
2022-11-03T02:52:34.488Z,100746.69
2022-11-03T02:55:10.315Z,100744.19
2022-11-03T02:57:42.538Z,100736.13
2022-11-03T03:00:09.398Z,100740.81
2022-11-03T03:02:46.814Z,100737.31
2022-11-03T03:05:17.037Z,100732.06
2022-11-03T03:07:49.296Z,100732.06
2022-11-03T03:10:23.662Z,100721.34
2022-11-03T03:12:55.336Z,100724.84
2022-11-03T03:15:30.168Z,100726.72
2022-11-03T03:18:04.479Z,100728.38
2022-11-03T03:20:42.077Z,100719.34
2022-11-03T03:23:18.383Z,100722.03
2022-11-03T03:25:53.295Z,100717.34
2022-11-03T03:28:24.195Z,100715.31
2022-11-03T03:30:54.281Z,100712.63
2022-11-03T03:33:21.511Z,100707.25
2022-11-03T03:35:50.658Z,100710.47
2022-11-03T03:38:23.174Z,100707.63
2022-11-03T03:40:53.721Z,100714.69
2022-11-03T03:43:23.049Z,100707.28
2022-11-03T03:45:54.501Z,100704.47
2022-11-03T03:48:21.608Z,100713.34
2022-11-03T03:50:49.803Z,100701.78
2022-11-03T03:53:18.561Z,100700.75
2022-11-03T03:55:48.364Z,100697.09
2022-11-03T03:58:15.766Z,100696.25
2022-11-03T04:00:42.520Z,100695.25
2022-11-03T04:03:17.941Z,100691.53
2022-11-03T04:05:45.140Z,100690.69
2022-11-03T04:08:12.218Z,100692.41
2022-11-03T04:10:38.741Z,100684.34
2022-11-03T04:13:24.804Z,100679.81
2022-11-03T04:16:10.050Z,100677.97
2022-11-03T04:18:54.985Z,100670.75
2022-11-03T04:21:39.812Z,100666.19
2022-11-03T04:24:06.275Z,100660.81
2022-11-03T04:26:32.599Z,100654.63
2022-11-03T04:29:00.526Z,100660.81
2022-11-03T04:31:29.814Z,100663.38
2022-11-03T04:33:56.372Z,100652.63
2022-11-03T04:36:25.608Z,100654.97
2022-11-03T04:38:52.756Z,100657.66
2022-11-03T04:41:25.306Z,100651.13
2022-11-03T04:43:52.769Z,100651.97
2022-11-03T04:46:28.028Z,100648.28
2022-11-03T04:48:58.505Z,100639.22
2022-11-03T04:51:27.840Z,100639.22
2022-11-03T04:54:18.532Z,100638.19
2022-11-03T04:56:44.860Z,100630.13
2022-11-03T04:59:13.165Z,100627.44
2022-11-03T05:01:40.130Z,100624.75
2022-11-03T05:04:17.968Z,100622.75
2022-11-03T05:06:51.464Z,100616.41
2022-11-03T05:09:24.438Z,100618.91
2022-11-03T05:11:50.932Z,100617.91
2022-11-03T05:14:24.500Z,100615.03
2022-11-03T05:16:53.835Z,100606.84
2022-11-03T05:19:25.146Z,100604.97
2022-11-03T05:21:52.786Z,100589.53
2022-11-03T05:24:21.793Z,100601.97
2022-11-03T05:26:49.509Z,100603.47
2022-11-03T05:29:25.468Z,100596.94
2022-11-03T05:31:53.628Z,100587.53
2022-11-03T05:34:23.188Z,100577.44
2022-11-03T05:36:49.654Z,100578.31
2022-11-03T05:39:35.681Z,100575.44
2022-11-03T05:42:03.464Z,100564.69
2022-11-03T05:44:37.168Z,100567.91
2022-11-03T05:47:20.769Z,100565.84
2022-11-03T05:49:50.462Z,100560.31
2022-11-03T05:52:25.169Z,100557.28
2022-11-03T05:54:54.291Z,100557.28
2022-11-03T05:57:20.865Z,100551.56
2022-11-03T05:59:49.735Z,100561.16
2022-11-03T06:02:38.700Z,100559.00
2022-11-03T06:05:18.059Z,100558.66
2022-11-03T06:07:44.869Z,100558.31
2022-11-03T06:10:25.657Z,100554.28
2022-11-03T06:12:56.001Z,100542.34
2022-11-03T06:15:28.853Z,100547.41
2022-11-03T06:17:55.819Z,100539.81
2022-11-03T06:20:23.069Z,100539.31
2022-11-03T06:22:52.544Z,100541.47
2022-11-03T06:25:31.518Z,100527.34
2022-11-03T06:28:04.554Z,100527.69
2022-11-03T06:30:39.236Z,100529.81
2022-11-03T06:33:27.855Z,100528.13
2022-11-03T06:35:59.419Z,100520.56
2022-11-03T06:38:29.724Z,100513.81
2022-11-03T06:40:58.006Z,100519.50
2022-11-03T06:43:30.228Z,100506.53
2022-11-03T06:46:01.674Z,100522.16
2022-11-03T06:48:29.449Z,100511.91
2022-11-03T06:50:58.162Z,100514.25
2022-11-03T06:53:31.371Z,100512.03
2022-11-03T06:55:58.664Z,100508.97
2022-11-03T06:58:34.691Z,100513.84
2022-11-03T07:01:04.083Z,100501.88
2022-11-03T07:03:35.020Z,100504.41
2022-11-03T07:06:10.249Z,100500.31
2022-11-03T07:08:41.946Z,100497.47
2022-11-03T07:11:16.532Z,100501.47
2022-11-03T07:13:43.573Z,100501.31
2022-11-03T07:16:53.380Z,100493.69
2022-11-03T07:19:30.755Z,100484.44
2022-11-03T07:22:04.569Z,100485.09
2022-11-03T07:24:34.615Z,100481.19
2022-11-03T07:27:19.450Z,100488.91
2022-11-03T07:29:46.552Z,100479.81
2022-11-03T07:32:19.202Z,100475.59
2022-11-03T07:34:47.296Z,100470.66
2022-11-03T07:37:25.748Z,100464.75
2022-11-03T07:39:52.963Z,100472.47
2022-11-03T07:42:24.381Z,100477.34
2022-11-03T07:44:52.339Z,100468.91
2022-11-03T07:47:20.421Z,100470.19
2022-11-03T07:49:47.447Z,100458.22
2022-11-03T07:52:20.871Z,100455.00
2022-11-03T07:54:47.277Z,100455.00
2022-11-03T07:57:19.813Z,100457.16
2022-11-03T07:59:48.957Z,100447.03
2022-11-03T08:02:47.946Z,100441.25
2022-11-03T08:05:14.459Z,100444.41
2022-11-03T08:07:40.860Z,100432.44
2022-11-03T08:10:07.580Z,100432.88
2022-11-03T08:12:34.133Z,100428.81
2022-11-03T08:15:00.510Z,100425.75
2022-11-03T08:17:26.937Z,100423.50
2022-11-03T08:19:53.319Z,100421.09
2022-11-03T08:22:19.726Z,100418.88
2022-11-03T08:24:46.085Z,100412.75
2022-11-03T08:27:12.442Z,100404.28
2022-11-03T08:29:38.849Z,100408.28
2022-11-03T08:32:05.337Z,100408.56
2022-11-03T08:34:31.719Z,100399.91
2022-11-03T08:36:58.179Z,100401.03
2022-11-03T08:39:24.569Z,100412.09
2022-11-03T08:41:50.906Z,100405.09
2022-11-03T08:44:17.257Z,100394.38
2022-11-03T08:46:43.569Z,100392.16
2022-11-03T08:49:09.881Z,100385.16
2022-11-03T08:51:38.971Z,100387.09
2022-11-03T08:54:09.446Z,100380.09
2022-11-03T08:56:35.818Z,100378.50
2022-11-03T08:59:02.161Z,100374.41
2022-11-03T09:01:29.010Z,100374.47
2022-11-03T09:03:55.446Z,100364.78
2022-11-03T09:06:21.789Z,100366.69
2022-11-03T09:11:34.542Z,100362.06
2022-11-03T09:14:01.010Z,100349.66
2022-11-03T09:16:27.344Z,100346.16
2022-11-03T09:18:53.686Z,100348.94
2022-11-03T09:21:20.045Z,100341.06
2022-11-03T09:23:46.417Z,100334.88
2022-11-03T09:26:12.790Z,100335.13
2022-11-03T09:28:39.167Z,100337.88
2022-11-03T09:31:05.610Z,100324.38
2022-11-03T09:33:32.422Z,100330.69
2022-11-03T09:35:58.789Z,100323.63
2022-11-03T09:38:25.410Z,100333.47
2022-11-03T09:40:51.757Z,100321.19
2022-11-03T09:43:18.479Z,100323.16
2022-11-03T09:45:45.024Z,100319.63
2022-11-03T09:48:12.971Z,100308.00
2022-11-03T09:50:39.861Z,100306.34
2022-11-03T09:53:06.992Z,100296.81
2022-11-03T09:55:33.703Z,100286.03
2022-11-03T09:58:12.747Z,100295.19
2022-11-03T10:00:39.163Z,100279.38
2022-11-03T10:03:06.106Z,100280.66
2022-11-03T10:05:33.479Z,100281.88
2022-11-03T10:08:03.604Z,100282.34
2022-11-03T10:10:30.928Z,100273.56
2022-11-03T10:12:57.849Z,100271.50
2022-11-03T10:15:26.753Z,100260.25
2022-11-03T10:17:54.479Z,100261.72
2022-11-03T10:20:22.433Z,100255.91
2022-11-03T10:22:53.502Z,100255.28
2022-11-03T10:25:40.906Z,100240.31
2022-11-03T10:28:24.941Z,100234.47
2022-11-03T10:33:55.774Z,100216.75
2022-11-03T10:36:25.425Z,100203.84
2022-11-03T10:38:52.028Z,100199.06
2022-11-03T10:41:20.716Z,100193.22
2022-11-03T10:44:11.005Z,100185.28
2022-11-03T10:46:54.476Z,100190.28
2022-11-03T10:49:21.461Z,100193.19
2022-11-03T10:51:51.060Z,100191.56
2022-11-03T10:54:19.772Z,100188.22
2022-11-03T10:56:47.356Z,100185.72
2022-11-03T10:59:18.956Z,100182.16
2022-11-03T11:01:45.768Z,100171.50
2022-11-03T11:04:19.156Z,100172.31
2022-11-03T11:06:46.300Z,100165.44
2022-11-03T11:09:16.796Z,100162.69
2022-11-03T11:12:05.385Z,100155.59
2022-11-03T11:14:34.733Z,100145.97
2022-11-03T11:17:02.102Z,100132.81
2022-11-03T11:19:29.857Z,100126.75
2022-11-03T11:21:56.136Z,100119.84
2022-11-03T11:24:44.024Z,100125.44
2022-11-03T11:27:32.351Z,100114.19
2022-11-03T11:30:05.012Z,100115.63
2022-11-03T11:32:37.172Z,100106.19
2022-11-03T11:35:03.624Z,100107.88
2022-11-03T11:37:29.932Z,100097.66
2022-11-03T11:39:56.331Z,100092.81
2022-11-03T11:42:22.848Z,100083.66
2022-11-03T11:44:56.658Z,100069.03
2022-11-03T11:47:25.936Z,100059.00
2022-11-03T11:50:08.951Z,100051.50
2022-11-03T11:52:46.249Z,100042.53
2022-11-03T11:55:25.338Z,100028.13
2022-11-03T11:57:53.397Z,100060.06
2022-11-03T12:00:28.363Z,100055.69
2022-11-03T12:02:55.752Z,100055.91
2022-11-03T12:05:26.039Z,100046.13
2022-11-03T12:07:52.531Z,100045.50
2022-11-03T12:10:26.138Z,100037.13
2022-11-03T12:12:53.240Z,100029.22
2022-11-03T12:15:49.830Z,100020.66
2022-11-03T12:18:50.641Z,100011.44
2022-11-03T12:21:46.377Z,100012.31
2022-11-03T12:24:26.928Z,99991.44
2022-11-03T12:26:56.687Z,99982.22
2022-11-03T12:29:23.049Z,99989.75
2022-11-03T12:31:50.265Z,99988.09
2022-11-03T12:34:17.248Z,99981.84
2022-11-03T12:36:44.615Z,99983.94
2022-11-03T12:39:11.747Z,99966.25
2022-11-03T12:41:38.468Z,99967.31
2022-11-03T12:44:05.358Z,99972.09
2022-11-03T12:46:31.726Z,99959.63
2022-11-03T12:48:58.456Z,99960.88
2022-11-03T12:51:24.969Z,99956.28
2022-11-03T12:53:51.523Z,99949.78
2022-11-03T12:56:18.862Z,99949.34
2022-11-03T12:58:45.193Z,99947.63
2022-11-03T13:01:12.200Z,99939.25
2022-11-03T13:03:38.701Z,99931.63
2022-11-03T13:06:09.769Z,99923.25
2022-11-03T13:08:37.102Z,99909.38
2022-11-03T13:11:04.288Z,99894.31
2022-11-03T13:13:31.482Z,99891.75
2022-11-03T13:15:57.842Z,99881.47
2022-11-03T13:18:24.266Z,99877.72
2022-11-03T13:20:50.635Z,99871.22
2022-11-03T13:23:20.279Z,99854.94
2022-11-03T13:25:49.671Z,99867.69
2022-11-03T13:28:16.035Z,99863.34
2022-11-03T13:30:49.025Z,99844.34
2022-11-03T13:33:15.384Z,99833.69
2022-11-03T13:35:41.968Z,99820.13
2022-11-03T13:38:08.437Z,99810.34
2022-11-03T13:40:55.669Z,99807.84
2022-11-03T13:43:21.508Z,99817.88
2022-11-03T13:45:47.823Z,99812.66
2022-11-03T13:51:01.787Z,99790.34
2022-11-03T13:56:20.731Z,99765.56
2022-11-03T14:01:35.160Z,99759.78
2022-11-03T14:06:47.958Z,99753.75
2022-11-03T14:09:14.373Z,99744.16
2022-11-03T14:11:59.424Z,99738.13
2022-11-03T14:14:25.902Z,99731.03
2022-11-03T14:16:52.356Z,99724.78
2022-11-03T14:19:18.724Z,99725.59
2022-11-03T14:21:45.028Z,99715.56
2022-11-03T14:24:11.389Z,99707.44
2022-11-03T14:26:42.763Z,99699.31
2022-11-03T14:29:09.987Z,99693.88
2022-11-03T14:31:36.851Z,99684.91
2022-11-03T14:34:03.238Z,99676.16
2022-11-03T14:36:29.633Z,99686.41
2022-11-03T14:38:56.085Z,99691.25
2022-11-03T14:41:40.974Z,99680.84
2022-11-03T14:44:07.361Z,99673.19
2022-11-03T14:46:33.692Z,99681.31
2022-11-03T14:49:03.986Z,99679.66
2022-11-03T14:51:30.776Z,99670.09
2022-11-03T14:53:58.294Z,99668.69
2022-11-03T14:56:25.164Z,99645.16
2022-11-03T14:58:51.697Z,99635.84
2022-11-03T15:01:19.032Z,99625.06
2022-11-03T15:03:45.773Z,99618.69
2022-11-03T15:06:12.280Z,99623.38
2022-11-03T15:08:39.265Z,99619.69
2022-11-03T15:11:08.241Z,99616.00
2022-11-03T15:13:39.636Z,99618.34
2022-11-03T15:16:11.476Z,99608.19
2022-11-03T15:18:37.790Z,99596.97
2022-11-03T15:21:04.801Z,99605.78
2022-11-03T15:26:18.085Z,99594.34
2022-11-03T15:28:44.434Z,99590.66
2022-11-03T15:31:10.810Z,99586.97
2022-11-03T15:33:37.164Z,99580.59
2022-11-03T15:36:04.636Z,99578.53
2022-11-03T15:38:31.438Z,99578.16
2022-11-03T15:41:15.659Z,99578.34
2022-11-03T15:43:43.640Z,99577.16
2022-11-03T15:46:10.551Z,99579.25
2022-11-03T15:48:37.669Z,99579.72
2022-11-03T15:51:04.702Z,99584.53
2022-11-03T15:53:31.108Z,99587.44
2022-11-03T15:55:57.492Z,99569.56
2022-11-03T15:58:23.874Z,99577.88
2022-11-03T16:00:50.684Z,99558.94
2022-11-03T16:03:17.320Z,99560.81
2022-11-03T16:05:43.772Z,99556.22
2022-11-03T16:08:10.522Z,99544.81
2022-11-03T16:10:37.191Z,99545.84
2022-11-03T16:13:03.532Z,99539.81
2022-11-03T16:15:29.864Z,99548.81
2022-11-03T16:18:02.518Z,99547.13
2022-11-03T16:20:30.786Z,99571.50
2022-11-03T16:22:57.665Z,99577.16
2022-11-03T16:25:24.351Z,99584.66
2022-11-03T16:27:50.767Z,99583.00
2022-11-03T16:30:17.309Z,99578.84
2022-11-03T16:32:43.837Z,99575.56
2022-11-03T16:35:10.238Z,99566.81
2022-11-03T16:37:37.532Z,99557.28
2022-11-03T16:40:05.360Z,99554.78
2022-11-03T16:42:38.151Z,99545.22
2022-11-03T16:45:15.832Z,99542.75
2022-11-03T16:47:42.234Z,99539.66
2022-11-03T16:50:08.689Z,99539.91
2022-11-03T16:52:34.996Z,99541.16
2022-11-03T16:55:01.386Z,99534.13
2022-11-03T16:57:27.769Z,99529.13
2022-11-03T16:59:54.142Z,99522.06
2022-11-03T17:02:20.541Z,99524.16
2022-11-03T17:04:47.045Z,99511.69
2022-11-03T17:07:13.401Z,99509.19
2022-11-03T17:09:39.821Z,99504.25
2022-11-03T17:12:06.402Z,99505.28
2022-11-03T17:14:32.773Z,99498.47
2022-11-03T17:16:59.085Z,99492.66
2022-11-03T17:19:25.498Z,99489.34
2022-11-03T17:21:51.875Z,99486.88
2022-11-03T17:24:18.253Z,99481.91
2022-11-03T17:26:55.723Z,99480.22
2022-11-03T17:29:27.166Z,99477.75
2022-11-03T17:31:54.307Z,99482.56
2022-11-03T17:34:24.373Z,99481.94
2022-11-03T17:36:52.317Z,99477.81
2022-11-03T17:39:24.702Z,99469.94
2022-11-03T17:41:51.073Z,99469.53
2022-11-03T17:44:18.865Z,99473.50
2022-11-03T17:46:45.241Z,99462.94
2022-11-03T17:49:11.586Z,99468.19
2022-11-03T17:51:42.088Z,99463.78
2022-11-03T17:54:10.462Z,99461.53
2022-11-03T17:56:36.833Z,99464.66
2022-11-03T17:59:03.356Z,99462.19
2022-11-03T18:01:29.951Z,99462.41
2022-11-03T18:03:56.945Z,99458.06
2022-11-03T18:06:23.270Z,99452.66
2022-11-03T18:08:49.947Z,99453.91
2022-11-03T18:11:43.709Z,99456.63
2022-11-03T18:14:10.132Z,99443.53
2022-11-03T18:16:36.907Z,99444.78
2022-11-03T18:19:04.057Z,99428.19
2022-11-03T18:21:31.848Z,99429.47
2022-11-03T18:23:58.813Z,99428.28
2022-11-03T18:26:26.969Z,99419.56
2022-11-03T18:28:54.039Z,99422.69
2022-11-03T18:31:36.217Z,99411.28
2022-11-03T18:34:13.114Z,99410.91
2022-11-03T18:36:40.159Z,99414.00
2022-11-03T18:39:06.593Z,99398.03
2022-11-03T18:41:35.955Z,99391.19
2022-11-03T18:44:06.733Z,99389.75
2022-11-03T18:46:33.059Z,99388.09
2022-11-03T18:48:59.386Z,99383.13
2022-11-03T18:51:26.317Z,99380.66
2022-11-03T18:53:52.676Z,99372.16
2022-11-03T18:56:21.295Z,99368.88
2022-11-03T18:58:50.482Z,99367.19
2022-11-03T19:01:22.960Z,99367.44
2022-11-03T19:03:50.039Z,99353.75
2022-11-03T19:06:17.447Z,99360.44
2022-11-03T19:08:45.317Z,99355.44
2022-11-03T19:11:13.606Z,99354.84
2022-11-03T19:13:45.499Z,99345.09
2022-11-03T19:16:32.949Z,99346.34
2022-11-03T19:18:59.295Z,99341.38
2022-11-03T19:21:25.887Z,99329.97
2022-11-03T19:23:58.005Z,99325.63
2022-11-03T19:26:27.423Z,99319.41
2022-11-03T19:29:03.037Z,99319.41
2022-11-03T19:31:42.545Z,99316.91
2022-11-03T19:34:15.448Z,99318.59
2022-11-03T19:36:42.952Z,99319.00
2022-11-03T19:39:23.390Z,99319.84
2022-11-03T19:42:08.352Z,99316.53
2022-11-03T19:47:06.684Z,99299.72
2022-11-03T19:49:34.118Z,99301.81
2022-11-03T19:52:00.877Z,99308.06
2022-11-03T19:54:27.322Z,99305.56
2022-11-03T19:56:53.714Z,99305.56
2022-11-03T19:59:20.050Z,99305.78
2022-11-03T20:01:46.489Z,99294.78
2022-11-03T20:04:12.909Z,99297.47
2022-11-03T20:06:40.933Z,99298.53
2022-11-03T20:09:11.234Z,99303.69
2022-11-03T20:11:37.636Z,99299.13
2022-11-03T20:14:04.193Z,99311.59
2022-11-03T20:16:31.050Z,99306.19
2022-11-03T20:18:57.803Z,99297.84
2022-11-03T20:21:25.560Z,99303.25
2022-11-03T20:23:54.619Z,99303.25
2022-11-03T20:26:23.489Z,99305.75
2022-11-03T20:28:50.753Z,99301.38
2022-11-03T20:31:17.669Z,99305.75
2022-11-03T20:33:44.805Z,99301.97
2022-11-03T20:36:15.782Z,99298.25
2022-11-03T20:38:42.886Z,99302.81
2022-11-03T20:41:15.177Z,99300.97
2022-11-03T20:43:46.744Z,99300.97
2022-11-03T20:46:21.004Z,99301.78
2022-11-03T20:48:47.551Z,99301.97
2022-11-03T20:51:15.884Z,99301.97
2022-11-03T20:53:42.511Z,99297.66
2022-11-03T20:56:19.403Z,99295.97
2022-11-03T20:58:46.253Z,99297.84
2022-11-03T21:01:18.235Z,99302.22
2022-11-03T21:03:58.884Z,99296.41
2022-11-03T21:06:27.086Z,99283.97
2022-11-03T21:08:53.412Z,99276.94
2022-11-03T21:11:27.757Z,99284.19
2022-11-03T21:13:57.130Z,99271.75
2022-11-03T21:16:46.852Z,99260.13
2022-11-03T21:19:34.628Z,99268.44
2022-11-03T21:22:01.732Z,99270.75
2022-11-03T21:24:28.189Z,99257.69
2022-11-03T21:26:54.541Z,99257.91
2022-11-03T21:29:39.127Z,99271.59
2022-11-03T21:32:07.995Z,99265.78
2022-11-03T21:34:34.457Z,99266.81
2022-11-03T21:37:00.801Z,99275.16
2022-11-03T21:39:30.793Z,99266.22
2022-11-03T21:42:16.980Z,99267.25
2022-11-03T21:44:43.616Z,99253.78
2022-11-03T21:47:11.592Z,99250.00
2022-11-03T21:49:43.643Z,99242.97
2022-11-03T21:52:12.541Z,99234.88
2022-11-03T21:54:39.883Z,99240.28
2022-11-03T21:57:07.557Z,99242.97
2022-11-03T21:59:34.455Z,99238.63
2022-11-03T22:02:01.695Z,99234.06
2022-11-03T22:04:28.604Z,99246.50
2022-11-03T22:06:56.533Z,99242.97
2022-11-03T22:09:24.034Z,99245.91
2022-11-03T22:11:51.203Z,99254.81
2022-11-03T22:14:17.682Z,99244.84
2022-11-03T22:16:44.649Z,99249.44
2022-11-03T22:19:36.912Z,99245.66
2022-11-03T22:22:24.317Z,99239.47
2022-11-03T22:25:09.126Z,99238.63
2022-11-03T22:27:35.490Z,99239.66
2022-11-03T22:30:20.678Z,99249.44
2022-11-03T22:32:52.363Z,99245.66
2022-11-03T22:35:37.904Z,99247.75
2022-11-03T22:38:09.636Z,99239.47
2022-11-03T22:40:55.765Z,99241.34
2022-11-03T22:43:41.636Z,99234.25
2022-11-03T22:46:09.321Z,99242.97
2022-11-03T22:48:36.131Z,99238.63
2022-11-03T22:51:05.712Z,99251.91
2022-11-03T22:53:53.201Z,99252.72
2022-11-03T22:56:20.721Z,99244.63
2022-11-03T22:58:47.373Z,99236.53
2022-11-03T23:01:19.238Z,99240.88
2022-11-03T23:03:46.953Z,99258.97
2022-11-03T23:06:15.808Z,99266.22
2022-11-03T23:08:44.236Z,99276.19
2022-11-03T23:11:19.161Z,99245.47
2022-11-03T23:13:48.245Z,99220.31
2022-11-03T23:16:17.376Z,99236.53
2022-11-03T23:19:02.877Z,99236.97
2022-11-03T23:21:30.062Z,99240.72
2022-11-03T23:24:15.342Z,99245.28
2022-11-03T23:26:42.149Z,99250.09
2022-11-03T23:29:09.021Z,99246.56
2022-11-03T23:31:37.308Z,99251.13
2022-11-03T23:34:04.720Z,99247.59
2022-11-03T23:36:31.136Z,99249.47
2022-11-03T23:38:58.269Z,99249.47
2022-11-03T23:41:25.207Z,99243.03
2022-11-03T23:43:52.121Z,99236.78
2022-11-03T23:46:44.339Z,99229.31
2022-11-03T23:49:11.817Z,99226.63
2022-11-03T23:51:39.081Z,99229.31
2022-11-03T23:54:07.371Z,99230.13
2022-11-03T23:56:55.223Z,99231.56
2022-11-03T23:59:22.343Z,99221.63
